sensor_id;sensor_type;location;lat;lon;timestamp;pressure;altitude;pressure_sealevel;temperature;humidity
48424;BME280;34232;42.502;26.014;2023-04-29T00:01:22;100289.28;;;7.96;70.57
48424;BME280;34232;42.502;26.014;2023-04-29T00:03:48;100292.97;;;7.94;70.67
48424;BME280;34232;42.502;26.014;2023-04-29T00:06:13;100300.41;;;8.00;70.15
48424;BME280;34232;42.502;26.014;2023-04-29T00:08:39;100293.91;;;7.93;70.06
48424;BME280;34232;42.502;26.014;2023-04-29T00:11:04;100292.44;;;7.89;69.73
48424;BME280;34232;42.502;26.014;2023-04-29T00:13:30;100297.03;;;7.98;69.28
48424;BME280;34232;42.502;26.014;2023-04-29T00:15:55;100302.09;;;8.01;69.02
48424;BME280;34232;42.502;26.014;2023-04-29T00:18:20;100294.75;;;8.06;68.75
48424;BME280;34232;42.502;26.014;2023-04-29T00:20:46;100307.31;;;8.01;69.38
48424;BME280;34232;42.502;26.014;2023-04-29T00:23:11;100298.53;;;8.02;69.90
48424;BME280;34232;42.502;26.014;2023-04-29T00:25:38;100296.53;;;8.05;69.49
48424;BME280;34232;42.502;26.014;2023-04-29T00:28:04;100300.00;;;8.06;70.03
48424;BME280;34232;42.502;26.014;2023-04-29T00:30:30;100303.16;;;8.11;68.90
48424;BME280;34232;42.502;26.014;2023-04-29T00:32:56;100292.03;;;8.07;69.27
48424;BME280;34232;42.502;26.014;2023-04-29T00:35:21;100291.00;;;8.10;69.06
48424;BME280;34232;42.502;26.014;2023-04-29T00:37:47;100305.97;;;8.08;68.29
48424;BME280;34232;42.502;26.014;2023-04-29T00:40:12;100298.63;;;8.13;68.21
48424;BME280;34232;42.502;26.014;2023-04-29T00:42:39;100297.69;;;8.14;68.28
48424;BME280;34232;42.502;26.014;2023-04-29T00:45:05;100295.28;;;8.11;67.51
48424;BME280;34232;42.502;26.014;2023-04-29T00:47:30;100300.84;;;8.19;66.62
48424;BME280;34232;42.502;26.014;2023-04-29T00:49:55;100303.16;;;8.24;66.38
48424;BME280;34232;42.502;26.014;2023-04-29T00:52:20;100300.63;;;8.22;66.33
48424;BME280;34232;42.502;26.014;2023-04-29T00:54:47;100301.78;;;8.18;66.63
48424;BME280;34232;42.502;26.014;2023-04-29T00:57:13;100298.31;;;8.18;66.69
48424;BME280;34232;42.502;26.014;2023-04-29T00:59:38;100305.25;;;8.06;66.74
48424;BME280;34232;42.502;26.014;2023-04-29T01:02:04;100301.34;;;7.99;67.00
48424;BME280;34232;42.502;26.014;2023-04-29T01:04:29;100299.16;;;7.93;67.19
48424;BME280;34232;42.502;26.014;2023-04-29T01:14:45;100285.25;;;7.65;69.32
48424;BME280;34232;42.502;26.014;2023-04-29T01:17:14;100282.44;;;7.68;69.44
48424;BME280;34232;42.502;26.014;2023-04-29T01:19:52;100287.28;;;7.75;69.33
48424;BME280;34232;42.502;26.014;2023-04-29T01:22:19;100279.19;;;7.65;70.17
48424;BME280;34232;42.502;26.014;2023-04-29T01:24:45;100278.13;;;7.67;70.00
48424;BME280;34232;42.502;26.014;2023-04-29T01:29:50;100274.38;;;7.71;69.56
48424;BME280;34232;42.502;26.014;2023-04-29T01:32:18;100270.28;;;7.67;69.60
48424;BME280;34232;42.502;26.014;2023-04-29T01:34:59;100264.53;;;7.62;69.67
48424;BME280;34232;42.502;26.014;2023-04-29T01:44:59;100258.00;;;7.55;69.57
48424;BME280;34232;42.502;26.014;2023-04-29T01:47:25;100255.13;;;7.33;70.56
48424;BME280;34232;42.502;26.014;2023-04-29T01:49:51;100254.84;;;7.11;70.41
48424;BME280;34232;42.502;26.014;2023-04-29T01:52:16;100255.44;;;7.01;71.46
48424;BME280;34232;42.502;26.014;2023-04-29T01:54:42;100250.13;;;7.16;71.14
48424;BME280;34232;42.502;26.014;2023-04-29T01:57:07;100252.56;;;7.19;70.57
48424;BME280;34232;42.502;26.014;2023-04-29T01:59:32;100253.50;;;7.18;70.81
48424;BME280;34232;42.502;26.014;2023-04-29T02:01:57;100255.38;;;7.16;71.22
48424;BME280;34232;42.502;26.014;2023-04-29T02:04:23;100244.91;;;7.16;70.70
48424;BME280;34232;42.502;26.014;2023-04-29T02:06:49;100242.59;;;7.11;71.68
48424;BME280;34232;42.502;26.014;2023-04-29T02:09:14;100248.69;;;7.12;71.70
48424;BME280;34232;42.502;26.014;2023-04-29T02:11:39;100248.88;;;7.09;71.63
48424;BME280;34232;42.502;26.014;2023-04-29T02:14:05;100250.09;;;7.03;71.21
48424;BME280;34232;42.502;26.014;2023-04-29T02:16:30;100248.41;;;6.75;72.39
48424;BME280;34232;42.502;26.014;2023-04-29T02:18:55;100256.50;;;6.85;72.55
48424;BME280;34232;42.502;26.014;2023-04-29T02:21:21;100243.16;;;6.89;72.85
48424;BME280;34232;42.502;26.014;2023-04-29T02:23:46;100248.19;;;6.92;72.41
48424;BME280;34232;42.502;26.014;2023-04-29T02:26:11;100244.63;;;6.93;72.34
48424;BME280;34232;42.502;26.014;2023-04-29T02:28:38;100247.06;;;6.96;72.29
48424;BME280;34232;42.502;26.014;2023-04-29T02:31:03;100245.28;;;6.97;72.58
48424;BME280;34232;42.502;26.014;2023-04-29T02:33:28;100242.53;;;6.98;72.65
48424;BME280;34232;42.502;26.014;2023-04-29T02:35:53;100241.41;;;7.02;72.43
48424;BME280;34232;42.502;26.014;2023-04-29T02:38:19;100239.53;;;7.05;73.01
48424;BME280;34232;42.502;26.014;2023-04-29T02:40:45;100238.91;;;7.01;72.97
48424;BME280;34232;42.502;26.014;2023-04-29T02:43:10;100240.19;;;6.81;73.92
48424;BME280;34232;42.502;26.014;2023-04-29T02:45:36;100248.38;;;6.89;73.55
48424;BME280;34232;42.502;26.014;2023-04-29T02:48:01;100244.22;;;6.99;73.26
48424;BME280;34232;42.502;26.014;2023-04-29T02:50:27;100239.63;;;7.03;73.32
48424;BME280;34232;42.502;26.014;2023-04-29T02:52:52;100235.69;;;7.10;72.46
48424;BME280;34232;42.502;26.014;2023-04-29T02:55:18;100229.19;;;7.16;72.20
48424;BME280;34232;42.502;26.014;2023-04-29T02:57:43;100230.69;;;7.20;72.06
48424;BME280;34232;42.502;26.014;2023-04-29T03:00:09;100229.00;;;7.19;71.79
48424;BME280;34232;42.502;26.014;2023-04-29T03:02:34;100229.84;;;7.19;71.89
48424;BME280;34232;42.502;26.014;2023-04-29T03:05:00;100234.16;;;7.20;72.29
48424;BME280;34232;42.502;26.014;2023-04-29T03:07:25;100243.66;;;7.09;72.65
48424;BME280;34232;42.502;26.014;2023-04-29T03:09:51;100241.31;;;7.04;72.96
48424;BME280;34232;42.502;26.014;2023-04-29T03:12:17;100238.41;;;7.09;72.59
48424;BME280;34232;42.502;26.014;2023-04-29T03:14:42;100238.13;;;7.13;72.18
48424;BME280;34232;42.502;26.014;2023-04-29T03:17:07;100238.00;;;7.15;72.28
48424;BME280;34232;42.502;26.014;2023-04-29T03:19:33;100243.22;;;7.15;72.77
48424;BME280;34232;42.502;26.014;2023-04-29T03:21:58;100238.41;;;7.09;73.43
48424;BME280;34232;42.502;26.014;2023-04-29T03:24:23;100244.72;;;7.19;73.00
48424;BME280;34232;42.502;26.014;2023-04-29T03:26:48;100243.22;;;7.15;73.18
48424;BME280;34232;42.502;26.014;2023-04-29T03:29:14;100239.91;;;7.13;73.29
48424;BME280;34232;42.502;26.014;2023-04-29T03:31:39;100238.25;;;7.24;73.39
48424;BME280;34232;42.502;26.014;2023-04-29T03:34:04;100240.16;;;7.35;72.34
48424;BME280;34232;42.502;26.014;2023-04-29T03:36:30;100239.41;;;7.33;72.56
48424;BME280;34232;42.502;26.014;2023-04-29T03:38:55;100241.81;;;7.36;72.64
48424;BME280;34232;42.502;26.014;2023-04-29T03:41:20;100252.56;;;7.46;72.10
48424;BME280;34232;42.502;26.014;2023-04-29T03:43:47;100238.94;;;7.53;71.69
48424;BME280;34232;42.502;26.014;2023-04-29T03:46:13;100244.47;;;7.49;71.84
48424;BME280;34232;42.502;26.014;2023-04-29T03:48:38;100239.66;;;7.55;72.12
48424;BME280;34232;42.502;26.014;2023-04-29T03:51:03;100239.97;;;7.63;72.07
48424;BME280;34232;42.502;26.014;2023-04-29T03:53:29;100238.00;;;7.54;71.30
48424;BME280;34232;42.502;26.014;2023-04-29T03:55:55;100247.97;;;7.62;71.80
48424;BME280;34232;42.502;26.014;2023-04-29T03:58:20;100250.59;;;7.75;71.76
48424;BME280;34232;42.502;26.014;2023-04-29T04:00:47;100257.91;;;7.69;70.52
48424;BME280;34232;42.502;26.014;2023-04-29T04:03:13;100258.31;;;7.63;70.28
48424;BME280;34232;42.502;26.014;2023-04-29T04:05:38;100259.28;;;7.62;70.06
48424;BME280;34232;42.502;26.014;2023-04-29T04:08:03;100258.25;;;7.78;70.01
48424;BME280;34232;42.502;26.014;2023-04-29T04:10:28;100258.03;;;7.81;69.76
48424;BME280;34232;42.502;26.014;2023-04-29T04:12:54;100265.47;;;7.87;69.26
48424;BME280;34232;42.502;26.014;2023-04-29T04:15:19;100263.28;;;7.81;69.19
48424;BME280;34232;42.502;26.014;2023-04-29T04:17:45;100263.69;;;8.00;69.30
48424;BME280;34232;42.502;26.014;2023-04-29T04:20:10;100270.84;;;8.11;68.83
48424;BME280;34232;42.502;26.014;2023-04-29T04:22:36;100266.44;;;8.24;68.93
48424;BME280;34232;42.502;26.014;2023-04-29T04:25:02;100271.91;;;8.33;68.99
48424;BME280;34232;42.502;26.014;2023-04-29T04:27:28;100264.09;;;8.45;68.04
48424;BME280;34232;42.502;26.014;2023-04-29T04:29:54;100262.81;;;8.63;67.73
48424;BME280;34232;42.502;26.014;2023-04-29T04:32:20;100260.72;;;8.68;68.01
48424;BME280;34232;42.502;26.014;2023-04-29T04:34:46;100258.34;;;8.89;67.47
48424;BME280;34232;42.502;26.014;2023-04-29T04:37:11;100259.56;;;8.96;66.82
48424;BME280;34232;42.502;26.014;2023-04-29T04:39:37;100256.81;;;8.97;66.42
48424;BME280;34232;42.502;26.014;2023-04-29T04:42:02;100262.66;;;9.13;66.23
48424;BME280;34232;42.502;26.014;2023-04-29T04:44:28;100265.88;;;9.41;66.04
48424;BME280;34232;42.502;26.014;2023-04-29T04:46:54;100260.78;;;9.51;65.99
48424;BME280;34232;42.502;26.014;2023-04-29T04:49:19;100267.41;;;9.67;65.34
48424;BME280;34232;42.502;26.014;2023-04-29T04:51:44;100260.25;;;9.80;66.02
48424;BME280;34232;42.502;26.014;2023-04-29T04:54:10;100268.06;;;9.58;64.66
48424;BME280;34232;42.502;26.014;2023-04-29T04:56:36;100277.16;;;9.54;65.47
48424;BME280;34232;42.502;26.014;2023-04-29T04:59:02;100272.44;;;9.70;66.63
48424;BME280;34232;42.502;26.014;2023-04-29T05:01:27;100270.81;;;10.03;64.36
48424;BME280;34232;42.502;26.014;2023-04-29T05:03:53;100265.00;;;10.33;63.72
48424;BME280;34232;42.502;26.014;2023-04-29T05:06:18;100264.16;;;10.66;63.02
48424;BME280;34232;42.502;26.014;2023-04-29T05:08:43;100260.75;;;10.97;61.99
48424;BME280;34232;42.502;26.014;2023-04-29T05:11:15;100265.97;;;11.08;61.76
48424;BME280;34232;42.502;26.014;2023-04-29T05:13:41;100258.47;;;11.36;60.68
48424;BME280;34232;42.502;26.014;2023-04-29T05:16:06;100265.53;;;11.35;58.98
48424;BME280;34232;42.502;26.014;2023-04-29T05:18:32;100257.56;;;11.46;58.78
48424;BME280;34232;42.502;26.014;2023-04-29T05:20:57;100270.72;;;11.26;57.97
48424;BME280;34232;42.502;26.014;2023-04-29T05:23:24;100264.28;;;11.18;59.20
48424;BME280;34232;42.502;26.014;2023-04-29T05:25:49;100265.66;;;11.34;60.18
48424;BME280;34232;42.502;26.014;2023-04-29T05:28:14;100270.81;;;11.35;60.14
48424;BME280;34232;42.502;26.014;2023-04-29T05:30:39;100270.44;;;11.61;61.01
48424;BME280;34232;42.502;26.014;2023-04-29T05:33:05;100268.41;;;11.64;60.45
48424;BME280;34232;42.502;26.014;2023-04-29T05:35:30;100264.72;;;11.55;60.35
48424;BME280;34232;42.502;26.014;2023-04-29T05:37:56;100267.44;;;11.65;60.01
48424;BME280;34232;42.502;26.014;2023-04-29T05:40:21;100273.31;;;11.89;60.25
48424;BME280;34232;42.502;26.014;2023-04-29T05:42:47;100275.19;;;11.99;59.70
48424;BME280;34232;42.502;26.014;2023-04-29T05:45:13;100272.97;;;12.04;58.96
48424;BME280;34232;42.502;26.014;2023-04-29T05:47:38;100270.34;;;12.04;59.38
48424;BME280;34232;42.502;26.014;2023-04-29T05:50:04;100275.25;;;12.39;59.50
48424;BME280;34232;42.502;26.014;2023-04-29T05:52:29;100271.34;;;12.73;58.53
48424;BME280;34232;42.502;26.014;2023-04-29T05:54:57;100269.44;;;13.04;55.64
48424;BME280;34232;42.502;26.014;2023-04-29T05:57:22;100272.72;;;13.27;53.69
48424;BME280;34232;42.502;26.014;2023-04-29T05:59:48;100260.63;;;13.44;52.63
48424;BME280;34232;42.502;26.014;2023-04-29T06:02:13;100256.41;;;13.70;52.53
48424;BME280;34232;42.502;26.014;2023-04-29T06:04:38;100260.69;;;13.90;52.24
48424;BME280;34232;42.502;26.014;2023-04-29T06:07:05;100251.13;;;13.70;52.25
48424;BME280;34232;42.502;26.014;2023-04-29T06:09:33;100245.25;;;13.95;52.58
48424;BME280;34232;42.502;26.014;2023-04-29T06:11:58;100247.19;;;13.93;51.38
48424;BME280;34232;42.502;26.014;2023-04-29T06:14:23;100239.41;;;13.92;50.47
48424;BME280;34232;42.502;26.014;2023-04-29T06:16:48;100243.81;;;14.11;49.89
48424;BME280;34232;42.502;26.014;2023-04-29T06:19:14;100245.25;;;14.42;49.13
48424;BME280;34232;42.502;26.014;2023-04-29T06:21:39;100241.63;;;14.43;49.48
48424;BME280;34232;42.502;26.014;2023-04-29T06:24:04;100236.94;;;14.55;49.00
48424;BME280;34232;42.502;26.014;2023-04-29T06:26:30;100233.25;;;14.65;49.25
48424;BME280;34232;42.502;26.014;2023-04-29T06:28:55;100236.41;;;14.51;47.74
48424;BME280;34232;42.502;26.014;2023-04-29T06:31:20;100234.16;;;14.56;47.15
48424;BME280;34232;42.502;26.014;2023-04-29T06:33:46;100237.56;;;14.39;48.23
48424;BME280;34232;42.502;26.014;2023-04-29T06:36:11;100237.09;;;14.53;49.89
48424;BME280;34232;42.502;26.014;2023-04-29T06:38:37;100239.53;;;14.92;46.55
48424;BME280;34232;42.502;26.014;2023-04-29T06:41:02;100243.69;;;14.94;45.96
48424;BME280;34232;42.502;26.014;2023-04-29T06:43:28;100241.59;;;14.70;45.81
48424;BME280;34232;42.502;26.014;2023-04-29T06:45:54;100239.66;;;14.73;44.95
48424;BME280;34232;42.502;26.014;2023-04-29T06:48:19;100235.94;;;14.83;45.60
48424;BME280;34232;42.502;26.014;2023-04-29T06:50:51;100237.53;;;14.94;45.02
48424;BME280;34232;42.502;26.014;2023-04-29T06:53:17;100236.72;;;15.11;46.56
48424;BME280;34232;42.502;26.014;2023-04-29T06:55:42;100221.06;;;15.35;46.28
48424;BME280;34232;42.502;26.014;2023-04-29T06:58:07;100223.44;;;15.47;47.03
48424;BME280;34232;42.502;26.014;2023-04-29T07:00:33;100221.94;;;15.62;46.51
48424;BME280;34232;42.502;26.014;2023-04-29T07:02:58;100231.75;;;15.26;47.48
48424;BME280;34232;42.502;26.014;2023-04-29T07:05:23;100226.06;;;15.21;48.44
48424;BME280;34232;42.502;26.014;2023-04-29T07:07:49;100227.19;;;15.18;48.27
48424;BME280;34232;42.502;26.014;2023-04-29T07:10:14;100238.47;;;15.20;47.80
48424;BME280;34232;42.502;26.014;2023-04-29T07:12:39;100227.88;;;15.38;49.68
48424;BME280;34232;42.502;26.014;2023-04-29T07:15:05;100226.34;;;15.35;48.45
48424;BME280;34232;42.502;26.014;2023-04-29T07:17:30;100225.91;;;15.22;49.87
48424;BME280;34232;42.502;26.014;2023-04-29T07:19:56;100230.91;;;15.25;49.95
48424;BME280;34232;42.502;26.014;2023-04-29T07:22:21;100230.91;;;15.25;47.57
48424;BME280;34232;42.502;26.014;2023-04-29T07:24:46;100221.75;;;15.20;47.60
48424;BME280;34232;42.502;26.014;2023-04-29T07:27:12;100220.81;;;15.29;45.38
48424;BME280;34232;42.502;26.014;2023-04-29T07:29:37;100217.31;;;15.28;46.89
48424;BME280;34232;42.502;26.014;2023-04-29T07:32:04;100217.97;;;15.58;46.21
48424;BME280;34232;42.502;26.014;2023-04-29T07:34:29;100216.78;;;15.43;45.89
48424;BME280;34232;42.502;26.014;2023-04-29T07:36:54;100211.34;;;15.88;44.33
48424;BME280;34232;42.502;26.014;2023-04-29T07:39:21;100213.97;;;16.14;43.09
48424;BME280;34232;42.502;26.014;2023-04-29T07:41:46;100215.19;;;15.93;44.27
48424;BME280;34232;42.502;26.014;2023-04-29T07:44:11;100210.72;;;16.20;43.22
48424;BME280;34232;42.502;26.014;2023-04-29T07:46:37;100209.03;;;16.53;43.04
48424;BME280;34232;42.502;26.014;2023-04-29T07:49:02;100201.84;;;16.95;42.41
48424;BME280;34232;42.502;26.014;2023-04-29T07:51:27;100204.19;;;16.56;40.58
48424;BME280;34232;42.502;26.014;2023-04-29T07:53:53;100199.16;;;16.71;42.59
48424;BME280;34232;42.502;26.014;2023-04-29T07:56:19;100200.63;;;16.65;40.06
48424;BME280;34232;42.502;26.014;2023-04-29T07:58:44;100195.50;;;16.38;41.19
48424;BME280;34232;42.502;26.014;2023-04-29T08:01:09;100186.66;;;16.63;40.65
48424;BME280;34232;42.502;26.014;2023-04-29T08:03:36;100183.69;;;16.74;41.11
48424;BME280;34232;42.502;26.014;2023-04-29T08:06:01;100175.03;;;16.72;40.72
48424;BME280;34232;42.502;26.014;2023-04-29T08:08:27;100173.81;;;16.59;39.53
48424;BME280;34232;42.502;26.014;2023-04-29T08:10:53;100177.41;;;16.92;39.64
48424;BME280;34232;42.502;26.014;2023-04-29T08:13:18;100172.13;;;17.32;36.35
48424;BME280;34232;42.502;26.014;2023-04-29T08:15:43;100165.78;;;17.41;36.41
48424;BME280;34232;42.502;26.014;2023-04-29T08:18:08;100166.63;;;17.50;37.83
48424;BME280;34232;42.502;26.014;2023-04-29T08:20:34;100164.44;;;17.37;35.15
48424;BME280;34232;42.502;26.014;2023-04-29T08:22:59;100167.09;;;17.70;33.45
48424;BME280;34232;42.502;26.014;2023-04-29T08:25:25;100161.78;;;17.70;35.64
48424;BME280;34232;42.502;26.014;2023-04-29T08:27:51;100160.06;;;18.01;36.79
48424;BME280;34232;42.502;26.014;2023-04-29T08:30:16;100152.41;;;17.98;35.52
48424;BME280;34232;42.502;26.014;2023-04-29T08:32:41;100153.00;;;18.16;36.11
48424;BME280;34232;42.502;26.014;2023-04-29T08:35:07;100154.63;;;18.26;35.95
48424;BME280;34232;42.502;26.014;2023-04-29T08:37:32;100148.81;;;18.61;34.51
48424;BME280;34232;42.502;26.014;2023-04-29T08:39:57;100145.03;;;18.78;34.88
48424;BME280;34232;42.502;26.014;2023-04-29T08:42:33;100144.88;;;18.41;34.54
48424;BME280;34232;42.502;26.014;2023-04-29T08:44:59;100140.47;;;18.64;34.55
48424;BME280;34232;42.502;26.014;2023-04-29T08:47:25;100137.31;;;18.61;32.68
48424;BME280;34232;42.502;26.014;2023-04-29T08:49:52;100135.28;;;18.54;33.81
48424;BME280;34232;42.502;26.014;2023-04-29T08:52:17;100135.19;;;18.48;33.80
48424;BME280;34232;42.502;26.014;2023-04-29T08:54:42;100124.59;;;18.32;34.10
48424;BME280;34232;42.502;26.014;2023-04-29T08:57:08;100127.72;;;18.35;33.60
48424;BME280;34232;42.502;26.014;2023-04-29T08:59:34;100123.22;;;18.36;33.75
48424;BME280;34232;42.502;26.014;2023-04-29T09:02:00;100115.38;;;18.73;33.49
48424;BME280;34232;42.502;26.014;2023-04-29T09:04:32;100103.63;;;19.05;34.19
48424;BME280;34232;42.502;26.014;2023-04-29T09:07:01;100108.78;;;19.44;32.76
48424;BME280;34232;42.502;26.014;2023-04-29T09:09:28;100099.97;;;19.59;31.94
48424;BME280;34232;42.502;26.014;2023-04-29T09:11:53;100107.00;;;19.74;33.20
48424;BME280;34232;42.502;26.014;2023-04-29T09:14:19;100112.31;;;20.04;32.04
48424;BME280;34232;42.502;26.014;2023-04-29T09:16:46;100097.16;;;20.25;31.90
48424;BME280;34232;42.502;26.014;2023-04-29T09:19:23;100103.66;;;19.87;31.23
48424;BME280;34232;42.502;26.014;2023-04-29T09:21:53;100087.41;;;19.44;32.63
48424;BME280;34232;42.502;26.014;2023-04-29T09:24:19;100087.94;;;19.25;32.19
48424;BME280;34232;42.502;26.014;2023-04-29T09:26:48;100081.97;;;19.00;32.74
48424;BME280;34232;42.502;26.014;2023-04-29T09:29:14;100084.41;;;19.10;33.64
48424;BME280;34232;42.502;26.014;2023-04-29T09:31:40;100078.09;;;19.26;33.11
48424;BME280;34232;42.502;26.014;2023-04-29T09:34:06;100077.22;;;19.48;32.93
48424;BME280;34232;42.502;26.014;2023-04-29T09:36:45;100077.50;;;19.68;32.61
48424;BME280;34232;42.502;26.014;2023-04-29T09:39:11;100074.28;;;19.58;32.18
48424;BME280;34232;42.502;26.014;2023-04-29T09:41:58;100074.38;;;19.49;31.89
48424;BME280;34232;42.502;26.014;2023-04-29T09:44:30;100074.06;;;18.92;34.43
48424;BME280;34232;42.502;26.014;2023-04-29T09:47:05;100067.50;;;19.32;34.52
48424;BME280;34232;42.502;26.014;2023-04-29T09:49:38;100059.50;;;19.32;33.24
48424;BME280;34232;42.502;26.014;2023-04-29T09:52:11;100056.13;;;19.68;33.53
48424;BME280;34232;42.502;26.014;2023-04-29T09:54:37;100048.38;;;19.87;32.22
48424;BME280;34232;42.502;26.014;2023-04-29T09:57:04;100047.44;;;20.10;32.36
48424;BME280;34232;42.502;26.014;2023-04-29T09:59:35;100045.53;;;20.40;30.96
48424;BME280;34232;42.502;26.014;2023-04-29T10:02:03;100038.34;;;20.62;31.47
48424;BME280;34232;42.502;26.014;2023-04-29T10:04:31;100037.66;;;20.81;30.56
48424;BME280;34232;42.502;26.014;2023-04-29T10:06:58;100034.94;;;20.74;29.54
48424;BME280;34232;42.502;26.014;2023-04-29T10:09:25;100025.84;;;20.47;31.18
48424;BME280;34232;42.502;26.014;2023-04-29T10:11:51;100029.31;;;20.26;31.27
48424;BME280;34232;42.502;26.014;2023-04-29T10:14:17;100022.03;;;20.20;32.47
48424;BME280;34232;42.502;26.014;2023-04-29T10:16:46;100020.38;;;20.19;30.77
48424;BME280;34232;42.502;26.014;2023-04-29T10:19:14;100012.66;;;20.46;32.29
48424;BME280;34232;42.502;26.014;2023-04-29T10:21:42;100019.16;;;20.58;31.96
48424;BME280;34232;42.502;26.014;2023-04-29T10:24:07;100015.41;;;20.74;32.29
48424;BME280;34232;42.502;26.014;2023-04-29T10:26:33;100016.50;;;20.58;31.03
48424;BME280;34232;42.502;26.014;2023-04-29T10:29:01;100018.25;;;20.72;31.91
48424;BME280;34232;42.502;26.014;2023-04-29T10:31:28;100012.53;;;20.75;32.12
48424;BME280;34232;42.502;26.014;2023-04-29T10:33:55;100009.03;;;21.03;30.98
48424;BME280;34232;42.502;26.014;2023-04-29T10:36:22;100004.16;;;21.13;31.02
48424;BME280;34232;42.502;26.014;2023-04-29T10:38:48;100001.56;;;20.98;30.39
48424;BME280;34232;42.502;26.014;2023-04-29T10:41:20;99993.78;;;21.31;31.47
48424;BME280;34232;42.502;26.014;2023-04-29T10:43:48;100005.72;;;21.01;31.16
48424;BME280;34232;42.502;26.014;2023-04-29T10:46:18;100000.56;;;20.71;31.67
48424;BME280;34232;42.502;26.014;2023-04-29T10:48:43;99996.81;;;20.93;30.13
48424;BME280;34232;42.502;26.014;2023-04-29T10:51:09;99998.38;;;21.09;31.47
48424;BME280;34232;42.502;26.014;2023-04-29T10:53:34;99982.44;;;21.29;30.93
48424;BME280;34232;42.502;26.014;2023-04-29T10:56:04;99994.72;;;21.17;30.99
48424;BME280;34232;42.502;26.014;2023-04-29T10:58:41;99985.63;;;20.62;31.31
48424;BME280;34232;42.502;26.014;2023-04-29T11:01:09;99984.81;;;20.19;31.58
48424;BME280;34232;42.502;26.014;2023-04-29T11:06:13;99979.91;;;20.65;32.71
48424;BME280;34232;42.502;26.014;2023-04-29T11:08:38;99978.88;;;20.87;32.11
48424;BME280;34232;42.502;26.014;2023-04-29T11:11:04;99971.09;;;20.92;32.40
48424;BME280;34232;42.502;26.014;2023-04-29T11:13:31;99982.25;;;21.03;31.45
48424;BME280;34232;42.502;26.014;2023-04-29T11:18:32;99947.50;;;21.44;31.92
48424;BME280;34232;42.502;26.014;2023-04-29T11:23:30;99956.25;;;21.65;30.38
48424;BME280;34232;42.502;26.014;2023-04-29T11:25:56;99950.75;;;21.87;31.00
48424;BME280;34232;42.502;26.014;2023-04-29T11:28:21;99949.41;;;22.04;30.55
48424;BME280;34232;42.502;26.014;2023-04-29T11:30:48;99949.81;;;22.08;30.03
48424;BME280;34232;42.502;26.014;2023-04-29T11:33:14;99958.31;;;21.63;31.73
48424;BME280;34232;42.502;26.014;2023-04-29T11:35:39;99954.75;;;21.50;31.16
48424;BME280;34232;42.502;26.014;2023-04-29T11:38:05;99950.09;;;21.78;30.34
48424;BME280;34232;42.502;26.014;2023-04-29T11:40:31;99952.97;;;21.77;30.38
48424;BME280;34232;42.502;26.014;2023-04-29T11:42:57;99947.88;;;21.34;31.42
48424;BME280;34232;42.502;26.014;2023-04-29T11:45:22;99954.16;;;21.54;30.78
48424;BME280;34232;42.502;26.014;2023-04-29T11:47:47;99951.69;;;21.59;30.79
48424;BME280;34232;42.502;26.014;2023-04-29T11:50:13;99945.06;;;21.49;30.68
48424;BME280;34232;42.502;26.014;2023-04-29T11:52:44;99939.88;;;21.13;32.75
48424;BME280;34232;42.502;26.014;2023-04-29T11:55:10;99938.84;;;20.79;32.98
48424;BME280;34232;42.502;26.014;2023-04-29T11:57:36;99932.06;;;21.11;33.71
48424;BME280;34232;42.502;26.014;2023-04-29T12:00:01;99934.03;;;20.68;31.96
48424;BME280;34232;42.502;26.014;2023-04-29T12:02:30;99924.94;;;20.90;32.94
48424;BME280;34232;42.502;26.014;2023-04-29T12:04:56;99914.75;;;20.45;32.23
48424;BME280;34232;42.502;26.014;2023-04-29T12:07:22;99909.50;;;20.15;34.05
48424;BME280;34232;42.502;26.014;2023-04-29T12:09:47;99908.00;;;20.27;33.40
48424;BME280;34232;42.502;26.014;2023-04-29T12:12:13;99903.25;;;20.51;32.96
48424;BME280;34232;42.502;26.014;2023-04-29T12:14:38;99908.31;;;20.67;32.68
48424;BME280;34232;42.502;26.014;2023-04-29T12:17:04;99901.31;;;20.66;32.89
48424;BME280;34232;42.502;26.014;2023-04-29T12:19:30;99901.31;;;20.66;33.12
48424;BME280;34232;42.502;26.014;2023-04-29T12:21:59;99905.25;;;20.70;34.23
48424;BME280;34232;42.502;26.014;2023-04-29T12:24:26;99899.19;;;20.34;32.90
48424;BME280;34232;42.502;26.014;2023-04-29T12:26:53;99889.63;;;20.46;32.68
48424;BME280;34232;42.502;26.014;2023-04-29T12:29:22;99884.53;;;20.30;33.14
48424;BME280;34232;42.502;26.014;2023-04-29T12:31:48;99887.59;;;20.48;33.16
48424;BME280;34232;42.502;26.014;2023-04-29T12:34:13;99880.41;;;20.76;32.32
48424;BME280;34232;42.502;26.014;2023-04-29T12:36:40;99877.41;;;20.92;31.80
48424;BME280;34232;42.502;26.014;2023-04-29T12:39:06;99879.59;;;20.82;32.12
48424;BME280;34232;42.502;26.014;2023-04-29T12:41:40;99874.63;;;20.79;32.97
48424;BME280;34232;42.502;26.014;2023-04-29T12:44:06;99877.91;;;20.75;33.59
48424;BME280;34232;42.502;26.014;2023-04-29T12:46:35;99872.25;;;20.91;32.28
48424;BME280;34232;42.502;26.014;2023-04-29T12:49:02;99858.69;;;20.99;31.66
48424;BME280;34232;42.502;26.014;2023-04-29T12:51:28;99855.44;;;21.04;32.35
48424;BME280;34232;42.502;26.014;2023-04-29T12:53:56;99853.06;;;20.53;32.33
48424;BME280;34232;42.502;26.014;2023-04-29T12:56:21;99855.28;;;20.43;33.70
48424;BME280;34232;42.502;26.014;2023-04-29T12:58:46;99852.75;;;20.69;32.03
48424;BME280;34232;42.502;26.014;2023-04-29T13:01:12;99843.38;;;20.24;32.38
48424;BME280;34232;42.502;26.014;2023-04-29T13:03:37;99842.00;;;20.35;33.28
48424;BME280;34232;42.502;26.014;2023-04-29T13:06:04;99843.31;;;20.17;32.92